Salesville, Texas
Current Conditions -  °F | °C
As of 2:55 AM on Sunday 23 Nov 2014 (Local Time) from KGDJ Reporting Station
Clear Clear  
Wind Chill: 54°   Ceiling: Unl
Heat Index: 54°   Visibility: 10mi
Dew Point: 52°   Wind: 5mph
Humidity: 92%   Direction: 170°S
Pressure: 29.66"   Gusts: NA
Location:  32.7965°N, 98.1108°W
Report Text: KGDJ 230855Z AUTO 17004KT 10SM CLR 12/11 A2966 RMK AO2 P0004 60013 T01230111
Loading
Personal Weather Stations






























Interactive Weather Map New forecast layout! Learn more

10-Day Weather Forecast

Advertisements
Track Severe Weather on mobile